createdAt,value
2022-10-17T00:01:34.773Z,70.20
2022-10-17T00:04:01.481Z,70.20
2022-10-17T00:06:28.173Z,70.30
2022-10-17T00:08:54.843Z,70.60
2022-10-17T00:11:23.705Z,70.30
2022-10-17T00:13:53.725Z,71.00
2022-10-17T00:16:29.954Z,70.90
2022-10-17T00:18:56.951Z,71.90
2022-10-17T00:21:24.392Z,70.70
2022-10-17T00:23:52.721Z,71.00
2022-10-17T00:26:20.757Z,72.00
2022-10-17T00:28:49.370Z,71.20
2022-10-17T00:31:18.977Z,71.20
2022-10-17T00:33:46.148Z,71.60
2022-10-17T00:36:18.900Z,71.00
2022-10-17T00:38:47.741Z,72.00
2022-10-17T00:41:17.125Z,71.60
2022-10-17T00:43:50.470Z,71.70
2022-10-17T00:46:17.173Z,72.40
2022-10-17T00:48:44.393Z,71.20
2022-10-17T00:51:11.264Z,71.50
2022-10-17T00:53:39.594Z,71.10
2022-10-17T00:56:06.619Z,71.90
2022-10-17T00:58:33.333Z,71.30
2022-10-17T01:01:00.413Z,71.20
2022-10-17T01:03:27.293Z,71.00
2022-10-17T01:05:54.198Z,71.20
2022-10-17T01:08:20.960Z,71.10
2022-10-17T01:10:47.586Z,71.20
2022-10-17T01:13:28.662Z,71.20
2022-10-17T01:16:07.838Z,72.00
2022-10-17T01:19:00.038Z,72.70
2022-10-17T01:22:05.384Z,72.20
2022-10-17T01:24:46.691Z,72.50
2022-10-17T01:27:22.433Z,71.10
2022-10-17T01:30:38.376Z,72.40
2022-10-17T01:33:17.609Z,72.80
2022-10-17T01:36:04.791Z,72.80
2022-10-17T01:39:14.530Z,73.00
2022-10-17T01:41:49.555Z,72.70
2022-10-17T01:44:29.512Z,73.00
2022-10-17T01:47:04.481Z,73.10
2022-10-17T01:49:33.853Z,72.70
2022-10-17T01:52:08.057Z,71.80
2022-10-17T01:54:45.514Z,72.50
2022-10-17T01:57:20.529Z,72.80
2022-10-17T01:59:52.085Z,72.70
2022-10-17T02:02:21.910Z,72.40
2022-10-17T02:04:51.005Z,71.60
2022-10-17T02:07:17.767Z,72.10
2022-10-17T02:09:44.584Z,71.40
2022-10-17T02:12:45.186Z,71.40
2022-10-17T02:15:55.859Z,72.80
2022-10-17T02:19:01.724Z,72.90
2022-10-17T02:21:37.660Z,72.70
2022-10-17T02:24:18.526Z,71.50
2022-10-17T02:26:55.890Z,72.20
2022-10-17T02:29:31.302Z,72.40
2022-10-17T02:32:08.645Z,73.10
2022-10-17T02:34:44.286Z,73.40
2022-10-17T02:37:15.551Z,72.90
2022-10-17T02:39:44.696Z,73.50
2022-10-17T02:42:13.998Z,73.80
2022-10-17T02:44:43.137Z,73.40
2022-10-17T02:47:34.733Z,73.60
2022-10-17T02:50:01.533Z,74.20
2022-10-17T02:52:40.574Z,73.40
2022-10-17T02:55:26.840Z,74.00
2022-10-17T02:58:01.170Z,74.50
2022-10-17T03:00:29.750Z,74.30
2022-10-17T03:02:56.537Z,73.50
2022-10-17T03:05:26.601Z,73.40
2022-10-17T03:07:54.561Z,74.30
2022-10-17T03:10:22.464Z,74.20
2022-10-17T03:12:49.168Z,73.80
2022-10-17T03:15:15.998Z,73.80
2022-10-17T03:17:43.165Z,74.20
2022-10-17T03:20:11.400Z,74.10
2022-10-17T03:22:38.232Z,74.50
2022-10-17T03:25:06.156Z,74.30
2022-10-17T03:27:35.268Z,74.50
2022-10-17T03:30:02.034Z,74.30
2022-10-17T03:32:30.034Z,74.40
2022-10-17T03:34:56.751Z,74.40
2022-10-17T03:37:23.466Z,74.40
2022-10-17T03:39:50.219Z,74.30
2022-10-17T03:42:17.420Z,74.30
2022-10-17T03:44:44.169Z,74.30
2022-10-17T03:47:13.464Z,74.40
2022-10-17T03:49:41.273Z,74.50
2022-10-17T03:52:12.620Z,74.40
2022-10-17T03:54:39.544Z,75.30
2022-10-17T03:57:06.812Z,74.50
2022-10-17T03:59:33.590Z,74.60
2022-10-17T04:02:08.112Z,74.50
2022-10-17T04:04:35.827Z,74.40
2022-10-17T04:07:03.412Z,74.60
2022-10-17T04:09:30.432Z,74.50
2022-10-17T04:12:05.862Z,74.60
2022-10-17T04:14:33.421Z,74.50
2022-10-17T04:17:01.174Z,74.40
2022-10-17T04:19:28.860Z,74.40
2022-10-17T04:21:55.942Z,74.30
2022-10-17T04:24:22.828Z,74.40
2022-10-17T04:27:03.196Z,74.40
2022-10-17T04:29:32.661Z,74.30
2022-10-17T04:32:06.420Z,74.10
2022-10-17T04:34:43.392Z,74.30
2022-10-17T04:37:10.460Z,74.40
2022-10-17T04:39:37.661Z,74.50
2022-10-17T04:42:04.367Z,74.50
2022-10-17T04:44:33.473Z,74.70
2022-10-17T04:47:00.899Z,74.80
2022-10-17T04:49:27.649Z,74.80
2022-10-17T04:51:59.376Z,74.90
2022-10-17T04:54:31.684Z,74.80
2022-10-17T04:57:06.179Z,74.90
2022-10-17T04:59:33.159Z,75.10
2022-10-17T05:02:21.733Z,74.70
2022-10-17T05:04:48.448Z,74.80
2022-10-17T05:07:16.009Z,74.90
2022-10-17T05:10:01.385Z,74.90
2022-10-17T05:12:29.601Z,74.90
2022-10-17T05:14:56.479Z,74.80
2022-10-17T05:17:25.612Z,75.80
2022-10-17T05:19:52.304Z,74.80
2022-10-17T05:22:19.075Z,74.80
2022-10-17T05:24:45.861Z,74.90
2022-10-17T05:27:13.866Z,75.00
2022-10-17T05:29:40.522Z,75.10
2022-10-17T05:32:22.877Z,75.10
2022-10-17T05:34:49.945Z,75.00
2022-10-17T05:37:17.048Z,75.10
2022-10-17T05:39:51.339Z,75.00
2022-10-17T05:42:18.623Z,75.00
2022-10-17T05:44:45.920Z,75.00
2022-10-17T05:47:14.432Z,74.90
2022-10-17T05:49:46.261Z,74.90
2022-10-17T05:52:17.105Z,75.00
2022-10-17T05:54:58.405Z,75.40
2022-10-17T05:57:26.374Z,74.90
2022-10-17T05:59:53.481Z,75.10
2022-10-17T06:02:21.608Z,74.90
2022-10-17T06:04:49.272Z,74.90
2022-10-17T06:07:17.670Z,74.80
2022-10-17T06:12:12.941Z,74.90
2022-10-17T06:14:40.877Z,75.10
2022-10-17T06:17:10.945Z,74.90
2022-10-17T06:19:41.395Z,74.80
2022-10-17T06:22:08.343Z,74.80
2022-10-17T06:24:35.919Z,74.70
2022-10-17T06:27:09.386Z,74.80
2022-10-17T06:29:39.372Z,74.80
2022-10-17T06:32:09.829Z,74.70
2022-10-17T06:34:40.189Z,74.90
2022-10-17T06:37:07.149Z,74.60
2022-10-17T06:39:35.820Z,74.60
2022-10-17T06:42:14.606Z,74.70
2022-10-17T06:44:47.813Z,74.80
2022-10-17T06:47:53.232Z,74.80
2022-10-17T06:50:36.811Z,74.80
2022-10-17T06:53:36.322Z,74.80
2022-10-17T06:56:28.380Z,74.70
2022-10-17T06:59:05.985Z,74.70
2022-10-17T07:01:35.355Z,74.60
2022-10-17T07:04:03.926Z,74.60
2022-10-17T07:06:31.670Z,74.70
2022-10-17T07:09:03.244Z,74.70
2022-10-17T07:11:29.968Z,74.60
2022-10-17T07:13:56.648Z,74.60
2022-10-17T07:16:23.393Z,74.60
2022-10-17T07:18:58.226Z,74.50
2022-10-17T07:21:24.958Z,74.50
2022-10-17T07:23:51.999Z,74.50
2022-10-17T07:26:19.644Z,74.60
2022-10-17T07:28:51.610Z,74.90
2022-10-17T07:31:26.725Z,74.90
2022-10-17T07:33:53.608Z,74.40
2022-10-17T07:36:20.996Z,74.60
2022-10-17T07:38:47.686Z,74.30
2022-10-17T07:41:17.928Z,74.30
2022-10-17T07:43:47.764Z,74.40
2022-10-17T07:46:16.555Z,74.40
2022-10-17T07:48:44.663Z,74.30
2022-10-17T07:51:11.413Z,74.20
2022-10-17T07:53:40.260Z,74.20
2022-10-17T07:56:11.368Z,74.20
2022-10-17T07:58:38.531Z,74.30
2022-10-17T08:01:14.804Z,73.80
2022-10-17T08:03:44.439Z,74.00
2022-10-17T08:06:11.223Z,74.40
2022-10-17T08:08:38.056Z,73.70
2022-10-17T08:11:07.397Z,74.00
2022-10-17T08:13:34.453Z,74.40
2022-10-17T08:16:09.879Z,74.20
2022-10-17T08:18:37.113Z,75.00
2022-10-17T08:21:08.588Z,74.70
2022-10-17T08:23:36.354Z,75.30
2022-10-17T08:26:05.988Z,75.40
2022-10-17T08:28:35.476Z,75.70
2022-10-17T08:31:07.267Z,76.00
2022-10-17T08:33:34.004Z,76.20
2022-10-17T08:36:02.189Z,75.70
2022-10-17T08:38:34.707Z,76.00
2022-10-17T08:41:06.633Z,76.10
2022-10-17T08:43:49.811Z,76.50
2022-10-17T08:46:17.019Z,76.20
2022-10-17T08:48:46.802Z,75.90
2022-10-17T08:51:24.578Z,76.30
2022-10-17T08:54:15.865Z,76.60
2022-10-17T08:56:49.690Z,76.60
2022-10-17T08:59:28.413Z,77.50
2022-10-17T09:02:12.533Z,76.40
2022-10-17T09:04:45.115Z,76.60
2022-10-17T09:07:39.802Z,76.40
2022-10-17T09:10:17.312Z,77.10
2022-10-17T09:13:06.826Z,77.10
2022-10-17T09:15:43.007Z,77.10
2022-10-17T09:18:18.690Z,76.90
2022-10-17T09:20:53.193Z,76.90
2022-10-17T09:23:27.697Z,76.70
2022-10-17T09:25:58.344Z,76.70
2022-10-17T09:28:35.443Z,76.40
2022-10-17T09:31:02.179Z,76.60
2022-10-17T09:33:53.210Z,76.30
2022-10-17T09:36:30.802Z,76.40
2022-10-17T09:39:03.918Z,76.60
2022-10-17T09:41:56.894Z,76.00
2022-10-17T09:44:33.694Z,76.50
2022-10-17T09:47:20.368Z,76.30
2022-10-17T09:49:48.515Z,76.70
2022-10-17T09:52:40.609Z,76.50
2022-10-17T09:55:22.294Z,77.40
2022-10-17T09:58:00.948Z,77.30
2022-10-17T10:00:33.810Z,77.90
2022-10-17T10:03:20.365Z,77.20
2022-10-17T10:06:01.821Z,77.40
2022-10-17T10:08:32.035Z,76.90
2022-10-17T10:11:05.710Z,76.50
2022-10-17T10:13:34.162Z,77.20
2022-10-17T10:16:38.275Z,76.30
2022-10-17T10:19:21.821Z,76.90
2022-10-17T10:21:57.081Z,76.80
2022-10-17T10:24:30.330Z,77.20
2022-10-17T10:27:01.267Z,76.30
2022-10-17T10:29:42.409Z,76.40
2022-10-17T10:32:09.152Z,77.00
2022-10-17T10:34:37.059Z,76.00
2022-10-17T10:37:16.977Z,76.30
2022-10-17T10:39:51.712Z,76.50
2022-10-17T10:42:34.844Z,76.50
2022-10-17T10:45:19.132Z,76.60
2022-10-17T10:47:59.200Z,76.80
2022-10-17T10:50:32.876Z,76.70
2022-10-17T10:53:34.770Z,76.50
2022-10-17T10:56:21.088Z,76.80
2022-10-17T10:59:08.737Z,76.50
2022-10-17T11:01:38.189Z,76.50
2022-10-17T11:04:13.796Z,76.00
2022-10-17T11:06:44.954Z,76.10
2022-10-17T11:09:38.946Z,76.60
2022-10-17T11:12:12.917Z,76.30
2022-10-17T11:15:27.302Z,76.00
2022-10-17T11:18:06.603Z,76.20
2022-10-17T11:20:48.534Z,75.80
2022-10-17T11:23:21.529Z,75.80
2022-10-17T11:25:54.292Z,75.60
2022-10-17T11:28:24.752Z,75.90
2022-10-17T11:31:09.500Z,75.10
2022-10-17T11:33:50.653Z,75.50
2022-10-17T11:36:21.584Z,75.40
2022-10-17T11:38:54.593Z,75.20
2022-10-17T11:41:28.397Z,75.50
2022-10-17T11:43:59.522Z,75.60
2022-10-17T11:46:28.466Z,75.40
2022-10-17T11:49:10.217Z,75.80
2022-10-17T11:52:03.665Z,75.80
2022-10-17T11:54:40.559Z,75.80
2022-10-17T11:57:13.865Z,75.80
2022-10-17T12:00:11.956Z,75.40
2022-10-17T12:02:45.118Z,75.80
2022-10-17T12:05:26.932Z,75.30
2022-10-17T12:08:33.366Z,76.50
2022-10-17T12:11:09.305Z,75.50
2022-10-17T12:13:41.154Z,75.30
2022-10-17T12:16:19.956Z,75.00
2022-10-17T12:19:02.507Z,75.40
2022-10-17T12:22:03.476Z,74.50
2022-10-17T12:24:40.844Z,74.70
2022-10-17T12:27:42.214Z,74.80
2022-10-17T12:30:12.048Z,74.80
2022-10-17T12:33:05.656Z,74.50
2022-10-17T12:35:36.296Z,74.60
2022-10-17T12:38:17.135Z,74.80
2022-10-17T12:40:48.443Z,74.60
2022-10-17T12:43:15.589Z,74.30
2022-10-17T12:45:56.532Z,74.50
2022-10-17T12:48:37.929Z,74.60
2022-10-17T12:54:10.537Z,74.50
2022-10-17T12:56:48.549Z,74.70
2022-10-17T12:59:18.345Z,74.80
2022-10-17T13:01:49.451Z,74.50
2022-10-17T13:04:16.749Z,74.60
2022-10-17T13:06:49.390Z,75.30
2022-10-17T13:09:22.024Z,74.80
2022-10-17T13:11:50.312Z,74.80
2022-10-17T13:14:20.590Z,75.20
2022-10-17T13:17:02.130Z,75.00
2022-10-17T13:19:42.866Z,75.00
2022-10-17T13:22:24.829Z,75.30
2022-10-17T13:24:53.984Z,75.20
2022-10-17T13:27:32.462Z,75.00
2022-10-17T13:30:02.110Z,75.40
2022-10-17T13:32:39.605Z,74.80
2022-10-17T13:35:07.644Z,75.60
2022-10-17T13:37:35.567Z,74.90
2022-10-17T13:40:17.556Z,74.70
2022-10-17T13:42:50.776Z,74.70
2022-10-17T13:45:33.065Z,74.70
2022-10-17T13:48:03.388Z,74.80
2022-10-17T13:50:45.236Z,74.50
2022-10-17T13:53:25.393Z,74.90
2022-10-17T13:56:27.990Z,74.40
2022-10-17T13:59:15.601Z,74.30
2022-10-17T14:01:42.412Z,73.90
2022-10-17T14:04:19.231Z,73.60
2022-10-17T14:06:51.223Z,73.90
2022-10-17T14:09:22.346Z,73.80
2022-10-17T14:11:58.001Z,73.50
2022-10-17T14:14:26.259Z,73.60
2022-10-17T14:16:53.370Z,73.50
2022-10-17T14:19:29.616Z,73.40
2022-10-17T14:22:20.920Z,73.50
2022-10-17T14:24:48.636Z,73.30
2022-10-17T14:27:30.686Z,73.00
2022-10-17T14:30:04.512Z,73.40
2022-10-17T14:35:18.840Z,73.00
2022-10-17T14:37:53.011Z,73.50
2022-10-17T14:40:25.986Z,72.80
2022-10-17T14:42:55.003Z,72.70
2022-10-17T14:45:31.658Z,72.20
2022-10-17T14:48:11.428Z,72.00
2022-10-17T14:50:38.510Z,71.70
2022-10-17T14:53:12.181Z,71.30
2022-10-17T14:55:40.841Z,71.40
2022-10-17T14:58:18.425Z,71.50
2022-10-17T15:00:45.112Z,71.60
2022-10-17T15:03:11.837Z,71.40
2022-10-17T15:05:38.586Z,71.50
2022-10-17T15:08:12.725Z,72.10
2022-10-17T15:10:41.839Z,71.70
2022-10-17T15:13:27.062Z,71.70
2022-10-17T15:15:54.282Z,71.80
2022-10-17T15:18:21.014Z,71.90
2022-10-17T15:20:51.967Z,72.50
2022-10-17T15:23:26.427Z,72.40
2022-10-17T15:25:53.581Z,72.00
2022-10-17T15:28:20.292Z,72.10
2022-10-17T15:30:46.927Z,72.00
2022-10-17T15:33:13.592Z,72.00
2022-10-17T15:35:40.324Z,72.00
2022-10-17T15:38:07.171Z,71.90
2022-10-17T15:40:34.093Z,72.20
2022-10-17T15:43:01.001Z,71.90
2022-10-17T15:45:27.908Z,72.00
2022-10-17T15:47:57.372Z,71.80
2022-10-17T15:50:24.059Z,72.00
2022-10-17T15:52:51.199Z,71.90
2022-10-17T15:55:18.509Z,72.10
2022-10-17T15:57:47.110Z,72.10
2022-10-17T16:00:24.116Z,72.30
2022-10-17T16:02:51.124Z,72.50
2022-10-17T16:05:25.997Z,72.50
2022-10-17T16:07:53.810Z,72.90
2022-10-17T16:10:22.093Z,72.80
2022-10-17T16:12:50.125Z,73.20
2022-10-17T16:15:25.234Z,72.90
2022-10-17T16:17:53.673Z,73.20
2022-10-17T16:20:21.506Z,73.20
2022-10-17T16:22:49.148Z,73.20
2022-10-17T16:25:25.841Z,73.40
2022-10-17T16:27:55.501Z,73.60
2022-10-17T16:30:23.800Z,73.80
2022-10-17T16:32:51.221Z,73.50
2022-10-17T16:35:27.361Z,73.50
2022-10-17T16:37:54.322Z,73.90
2022-10-17T16:40:21.002Z,73.90
2022-10-17T16:42:47.770Z,73.70
2022-10-17T16:45:23.097Z,73.70
2022-10-17T16:47:50.598Z,74.40
2022-10-17T16:50:17.379Z,74.10
2022-10-17T16:52:44.029Z,74.10
2022-10-17T16:55:10.931Z,74.10
2022-10-17T16:57:37.698Z,74.10
2022-10-17T17:00:06.070Z,74.10
2022-10-17T17:02:32.997Z,74.30
2022-10-17T17:05:00.962Z,74.50
2022-10-17T17:07:29.411Z,74.30
2022-10-17T17:09:56.634Z,74.10
2022-10-17T17:12:23.485Z,74.20
2022-10-17T17:14:50.178Z,74.40
2022-10-17T17:17:30.135Z,74.20
2022-10-17T17:20:04.261Z,74.20
2022-10-17T17:22:31.037Z,74.30
2022-10-17T17:24:57.722Z,74.20
2022-10-17T17:27:26.839Z,75.30
2022-10-17T17:29:53.638Z,74.50
2022-10-17T17:32:20.386Z,74.50
2022-10-17T17:34:47.119Z,74.50
2022-10-17T17:37:13.856Z,74.50
2022-10-17T17:39:40.677Z,74.40
2022-10-17T17:42:07.339Z,74.60
2022-10-17T17:44:34.097Z,74.50
2022-10-17T17:47:00.851Z,74.50
2022-10-17T17:49:27.611Z,74.50
2022-10-17T17:51:54.372Z,74.50
2022-10-17T17:54:21.023Z,74.60
2022-10-17T17:56:47.722Z,74.90
2022-10-17T17:59:14.457Z,74.50
2022-10-17T18:01:41.483Z,74.90
2022-10-17T18:04:09.229Z,74.80
2022-10-17T18:06:37.491Z,74.50
2022-10-17T18:09:05.244Z,74.40
2022-10-17T18:11:32.654Z,74.50
2022-10-17T18:14:02.081Z,74.40
2022-10-17T18:16:30.223Z,74.50
2022-10-17T18:18:59.502Z,74.50
2022-10-17T18:21:29.192Z,74.20
2022-10-17T18:23:55.885Z,74.30
2022-10-17T18:26:23.274Z,74.40
2022-10-17T18:28:50.660Z,74.60
2022-10-17T18:31:25.039Z,74.50
2022-10-17T18:33:53.135Z,75.00
2022-10-17T18:36:20.836Z,74.40
2022-10-17T18:38:48.638Z,74.30
2022-10-17T18:41:17.794Z,75.80
2022-10-17T18:43:46.751Z,74.70
2022-10-17T18:46:21.494Z,74.50
2022-10-17T18:48:49.835Z,74.80
2022-10-17T18:51:19.053Z,74.30
2022-10-17T18:53:48.325Z,74.40
2022-10-17T18:56:15.476Z,74.60
2022-10-17T18:58:42.362Z,74.40
2022-10-17T19:01:21.704Z,74.40
2022-10-17T19:03:50.861Z,75.20
2022-10-17T19:06:20.435Z,74.70
2022-10-17T19:08:47.924Z,74.70
2022-10-17T19:11:20.945Z,74.40
2022-10-17T19:13:48.366Z,74.60
2022-10-17T19:16:19.406Z,74.50
2022-10-17T19:19:07.784Z,74.60
2022-10-17T19:21:34.760Z,75.40
2022-10-17T19:24:04.695Z,74.60
2022-10-17T19:26:33.232Z,74.90
2022-10-17T19:29:00.505Z,74.70
2022-10-17T19:31:29.541Z,74.40
2022-10-17T19:33:56.540Z,74.80
2022-10-17T19:36:28.822Z,74.50
2022-10-17T19:38:59.358Z,74.70
2022-10-17T19:41:26.763Z,74.40
2022-10-17T19:43:53.457Z,74.50
2022-10-17T19:46:22.482Z,74.80
2022-10-17T19:48:50.271Z,75.00
2022-10-17T19:51:19.568Z,74.60
2022-10-17T19:53:47.276Z,74.80
2022-10-17T19:56:18.377Z,74.70
2022-10-17T19:58:46.487Z,74.40
2022-10-17T20:01:16.187Z,74.60
2022-10-17T20:03:43.029Z,74.80
2022-10-17T20:06:10.540Z,74.80
2022-10-17T20:08:38.628Z,74.60
2022-10-17T20:11:07.392Z,74.10
2022-10-17T20:13:35.974Z,74.80
2022-10-17T20:16:03.652Z,74.80
2022-10-17T20:18:30.550Z,74.60
2022-10-17T20:21:06.586Z,74.50
2022-10-17T20:23:34.426Z,75.20
2022-10-17T20:26:18.837Z,74.50
2022-10-17T20:28:50.460Z,74.70
2022-10-17T20:31:17.405Z,74.40
2022-10-17T20:33:44.118Z,74.50
2022-10-17T20:36:12.690Z,74.60
2022-10-17T20:38:39.394Z,74.80
2022-10-17T20:41:08.600Z,74.60
2022-10-17T20:43:36.529Z,74.90
2022-10-17T20:46:21.989Z,74.80
2022-10-17T20:48:54.496Z,74.70
2022-10-17T20:51:21.741Z,75.40
2022-10-17T20:53:48.804Z,74.80
2022-10-17T20:56:22.497Z,74.80
2022-10-17T20:59:01.670Z,75.80
2022-10-17T21:01:29.728Z,75.60
2022-10-17T21:03:59.663Z,75.40
2022-10-17T21:06:27.634Z,75.30
2022-10-17T21:08:55.522Z,75.40
2022-10-17T21:11:24.581Z,75.60
2022-10-17T21:13:56.745Z,75.60
2022-10-17T21:16:23.905Z,75.90
2022-10-17T21:18:50.715Z,74.90
2022-10-17T21:21:21.682Z,75.10
2022-10-17T21:23:50.767Z,75.80
2022-10-17T21:26:18.263Z,75.40
2022-10-17T21:28:46.767Z,75.40
2022-10-17T21:31:17.129Z,75.30
2022-10-17T21:33:46.233Z,75.40
2022-10-17T21:36:13.821Z,75.00
2022-10-17T21:38:41.000Z,74.70
2022-10-17T21:41:09.394Z,74.70
2022-10-17T21:43:37.122Z,75.10
2022-10-17T21:46:18.168Z,74.70
2022-10-17T21:48:46.332Z,75.60
2022-10-17T21:51:15.805Z,74.70
2022-10-17T21:53:43.469Z,74.90
2022-10-17T21:56:13.462Z,74.60
2022-10-17T21:58:40.501Z,75.00
2022-10-17T22:01:19.354Z,74.60
2022-10-17T22:03:48.422Z,75.50
2022-10-17T22:06:37.528Z,74.90
2022-10-17T22:09:06.659Z,75.00
2022-10-17T22:11:35.334Z,74.90
2022-10-17T22:14:05.538Z,74.80
2022-10-17T22:16:32.826Z,74.80
2022-10-17T22:19:04.889Z,74.20
2022-10-17T22:21:33.632Z,74.40
2022-10-17T22:24:02.740Z,74.20
2022-10-17T22:26:31.618Z,74.50
2022-10-17T22:28:58.714Z,74.50
2022-10-17T22:31:26.314Z,74.20
2022-10-17T22:33:53.009Z,74.10
2022-10-17T22:36:20.003Z,74.00
2022-10-17T22:38:46.745Z,74.10
2022-10-17T22:41:13.672Z,74.10
2022-10-17T22:43:40.377Z,74.40
2022-10-17T22:46:07.699Z,74.10
2022-10-17T22:48:34.924Z,74.40
2022-10-17T22:51:02.115Z,74.90
2022-10-17T22:53:29.757Z,74.20
2022-10-17T22:56:02.643Z,74.20
2022-10-17T22:58:30.802Z,74.70
2022-10-17T23:00:57.820Z,74.40
2022-10-17T23:03:26.817Z,74.20
2022-10-17T23:05:53.541Z,74.60
2022-10-17T23:08:20.571Z,74.30
2022-10-17T23:10:47.722Z,74.50
2022-10-17T23:13:15.282Z,74.60
2022-10-17T23:15:42.620Z,74.50
2022-10-17T23:18:10.080Z,74.30
2022-10-17T23:20:37.809Z,74.30
2022-10-17T23:23:05.180Z,74.30
2022-10-17T23:25:34.214Z,74.20
2022-10-17T23:28:01.606Z,74.80
2022-10-17T23:30:28.779Z,74.10
2022-10-17T23:32:55.447Z,74.10
2022-10-17T23:35:22.086Z,74.00
2022-10-17T23:37:48.743Z,73.90
2022-10-17T23:40:15.509Z,73.90
2022-10-17T23:42:42.282Z,74.10
2022-10-17T23:45:09.486Z,74.00
2022-10-17T23:47:36.220Z,74.20
2022-10-17T23:50:03.865Z,74.00
2022-10-17T23:52:30.874Z,74.20
2022-10-17T23:54:57.526Z,74.70
2022-10-17T23:57:24.441Z,73.90
2022-10-17T23:59:51.177Z,74.10
